Terminal Aerodrome Forecast
Issued by NWS Rapid City, SD

Home | Current Version | Previous Version | Graphics & Text | Print | Product List | Glossary On
Versions: 1 2 3 4 5 6 7 8 9 10 11 12 13 14 15 16 17 18 19
000
FTUS43 KUNR 161500 AAA
TAFRAP
TAF AMD
KRAP 161502Z 1615/1712 36022G30KT P6SM SCT040
      TEMPO 1615/1617 P6SM -SHRASN BKN018 OVC025
     FM161800 02020G28KT P6SM SCT040
     FM170000 05010KT P6SM SCT080=

USA.gov is the U.S. government's official web portal to all federal, state and local government web resources and services.